Arcata Airport
KACV : now visible

Airfield :











YOU CAN JOIN US ON...

 
LOGIN :

Register | Disclaimer

   EN    FR    IT 

 









Legend :    VFR   Marginal VFR   IFR   Intensive IFR   Very Intensive IFR
Visi :
Ceiling :
>= 8 km
>= 3000ft
5 to 8 km
1000 to 3000 ft
1500m to 5 km
500 to 1000 ft
800 to 1500m
200 to 500 ft
< 800m
< 200 ft
Symbols :   Thunderstorms  Fog  Heavy snow  Heavy precipitations  Wind > 20 kt






- Airport Elevation : 221 ft
- IATA code : ACV


KACV - Arcata

CURRENT METAR :
  • 291653Z AUTO 30004KT 3SM BR OVC003 13/12 A2989 RMK AO2 SLP127 T01280117

EXPIRED METARs :
  • 291638Z AUTO 33005KT 3SM BR OVC004 13/12 A2989 RMK AO2 T01280117
  • 291553Z AUTO 31003KT 6SM BR OVC005 12/11 A2990 RMK AO2 SLP131 T01220111
  • 291515Z AUTO 31003KT 3SM BR OVC005 12/11 A2990 RMK AO2 T01220111
  • 291504Z AUTO 33003KT 2 1/2SM BR OVC005 12/11 A2990 RMK AO2 T01220111
  • 291453Z AUTO 00000KT 1 1/4SM BR OVC005 12/11 A2990 RMK AO2 SLP129 T01220111 50004
  • 291445Z AUTO 00000KT 1 3/4SM BR OVC006 12/11 A2990 RMK AO2 T01220111

TAF KACV
Valid from the 29 at 15:00 until the 30 at 12:00 UTC


291519Z 2915/3012 VRB03KT 3SM BR OVC005
TEMPO 2915/2918 4SM BR OVC007
FM291800 28004KT P6SM OVC010
FM292100 25006KT P6SM OVC250
FM300400 19003KT 6SM BR OVC015
FM300600 19004KT P6SM VCTS OVC025CB
KZSE FIR / North America



MET'MAP, your aeronautical weather chart ! - Copyright ORBIFLY December 2007 - Disclaimer

ORBIFLY MET'MAP TEAM :

Programming & Development : Alexandra Zaïnal
Concept & original design : Baudouin d'Aumeries
Assistance for programming : Marc-Olivier Méhu
Technical & hardware support : Manuel Goepfert

Contact : metmap@orbifly.com




SOURCES & CREDITS :

   NOAA       Earth
Advisory